createdAt,value
2018-12-13T00:01:17.877Z,1
2018-12-13T00:06:17.911Z,1
2018-12-13T00:11:17.911Z,1
2018-12-13T00:16:17.911Z,0.9
2018-12-13T00:21:17.908Z,0.9
2018-12-13T00:26:17.913Z,0.9
2018-12-13T00:31:17.930Z,0.9
2018-12-13T00:36:17.920Z,0.9
2018-12-13T00:41:17.930Z,0.9
2018-12-13T00:46:17.920Z,0.9
2018-12-13T00:51:17.910Z,0.9
2018-12-13T00:56:17.915Z,0.8
2018-12-13T01:01:18.048Z,0.8
2018-12-13T01:06:17.891Z,0.7
2018-12-13T01:11:17.934Z,0.7
2018-12-13T01:16:17.942Z,0.7
2018-12-13T01:21:20.710Z,0.6
2018-12-13T01:26:17.946Z,0.6
2018-12-13T01:31:17.947Z,0.6
2018-12-13T01:36:17.952Z,0.6
2018-12-13T01:41:17.952Z,0.6
2018-12-13T01:46:17.916Z,0.6
2018-12-13T01:51:17.938Z,0.6
2018-12-13T01:56:17.966Z,0.6
2018-12-13T02:01:17.963Z,0.5
2018-12-13T02:06:17.975Z,0.5
2018-12-13T02:11:19.000Z,0.5
2018-12-13T02:16:17.973Z,0.5
2018-12-13T02:21:17.976Z,0.5
2018-12-13T02:26:17.967Z,0.5
2018-12-13T02:31:17.968Z,0.5
2018-12-13T02:36:17.992Z,0.5
2018-12-13T02:41:17.948Z,0.5
2018-12-13T02:46:17.977Z,0.5
2018-12-13T02:51:17.978Z,0.4
2018-12-13T02:56:17.996Z,0.5
2018-12-13T03:01:17.984Z,0.4
2018-12-13T03:06:18.427Z,0.4
2018-12-13T03:11:18.441Z,0.4
2018-12-13T03:16:18.432Z,0.4
2018-12-13T03:21:18.460Z,0.4
2018-12-13T03:26:18.444Z,0.3
2018-12-13T03:31:18.510Z,0.3
2018-12-13T03:36:18.441Z,0.3
2018-12-13T03:41:18.438Z,0.3
2018-12-13T03:46:18.442Z,0.3
2018-12-13T03:51:18.446Z,0.3
2018-12-13T03:56:18.444Z,0.2
2018-12-13T04:01:18.470Z,0.2
2018-12-13T04:06:18.461Z,0.2
2018-12-13T04:11:18.456Z,0.2
2018-12-13T04:16:18.465Z,0.2
2018-12-13T04:21:18.464Z,0.2
2018-12-13T04:26:18.470Z,0.1
2018-12-13T04:31:18.467Z,0.1
2018-12-13T04:36:18.481Z,0.1
2018-12-13T04:41:18.484Z,0.1
2018-12-13T04:46:18.466Z,0.1
2018-12-13T04:51:18.465Z,0.1
2018-12-13T04:56:18.463Z,0.1
2018-12-13T05:01:18.472Z,0
2018-12-13T05:06:18.485Z,0
2018-12-13T05:11:18.781Z,0
2018-12-13T05:16:18.741Z,0
2018-12-13T05:21:18.785Z,0
2018-12-13T05:26:18.784Z,0
2018-12-13T05:31:18.790Z,0
2018-12-13T05:36:18.790Z,0
2018-12-13T05:41:18.798Z,0
2018-12-13T05:46:18.796Z,0
2018-12-13T05:51:18.814Z,0
2018-12-13T05:56:18.803Z,0
2018-12-13T06:01:18.818Z,0
2018-12-13T06:06:18.783Z,0
2018-12-13T06:11:18.841Z,0
2018-12-13T06:16:18.810Z,0
2018-12-13T06:21:18.814Z,0
2018-12-13T06:26:18.804Z,0
2018-12-13T06:31:18.821Z,-0.1
2018-12-13T06:36:18.824Z,-0.1
2018-12-13T06:41:18.840Z,-0.1
2018-12-13T06:46:18.790Z,-0.1
2018-12-13T06:51:20.119Z,-0.1
2018-12-13T06:56:18.824Z,-0.1
2018-12-13T07:01:18.827Z,-0.1
2018-12-13T07:06:18.843Z,-0.1
2018-12-13T07:11:18.858Z,0
2018-12-13T07:16:18.837Z,0
2018-12-13T07:21:18.831Z,0
2018-12-13T07:26:18.865Z,0
2018-12-13T07:31:18.850Z,-0.1
2018-12-13T07:36:18.851Z,-0.1
2018-12-13T07:41:18.860Z,0
2018-12-13T07:46:18.876Z,0
2018-12-13T07:51:18.815Z,0
2018-12-13T07:56:18.843Z,0
2018-12-13T08:01:18.830Z,0
2018-12-13T08:06:18.869Z,0
2018-12-13T08:11:18.886Z,0
2018-12-13T08:16:18.881Z,0
2018-12-13T08:21:18.885Z,0.1
2018-12-13T08:26:18.879Z,0.1
2018-12-13T08:31:18.878Z,0.1
2018-12-13T08:36:18.860Z,0.1
2018-12-13T08:41:18.883Z,0.2
2018-12-13T08:46:18.900Z,0.2
2018-12-13T08:51:18.897Z,0.3
2018-12-13T08:56:18.906Z,0.4
2018-12-13T09:01:18.903Z,0.4
2018-12-13T09:06:21.771Z,0.4
2018-12-13T09:11:18.910Z,0.4
2018-12-13T09:16:18.922Z,0.5
2018-12-13T09:21:18.922Z,0.5
2018-12-13T09:26:18.910Z,0.6
2018-12-13T09:31:18.896Z,0.7
2018-12-13T09:36:18.923Z,0.7
2018-12-13T09:41:18.913Z,0.9
2018-12-13T09:46:18.954Z,0.8
2018-12-13T09:51:18.920Z,0.8
2018-12-13T09:56:18.905Z,0.9
2018-12-13T10:01:18.939Z,0.9
2018-12-13T10:06:19.968Z,0.8
2018-12-13T10:11:18.942Z,0.8
2018-12-13T10:16:18.939Z,0.7
2018-12-13T10:21:18.968Z,0.5
2018-12-13T10:26:18.945Z,0.6
2018-12-13T10:31:18.949Z,0.4
2018-12-13T10:36:18.926Z,0.4
2018-12-13T10:41:18.944Z,0.4
2018-12-13T10:46:18.960Z,0.4
2018-12-13T10:51:18.950Z,0.5
2018-12-13T10:56:20.249Z,0.6
2018-12-13T11:01:20.258Z,0.7
2018-12-13T11:06:20.244Z,0.6
2018-12-13T11:11:20.329Z,0.5
2018-12-13T11:16:20.317Z,0.6
2018-12-13T11:21:20.320Z,0.6
2018-12-13T11:26:20.347Z,0.6
2018-12-13T11:31:20.284Z,0.6
2018-12-13T11:36:20.341Z,0.7
2018-12-13T11:41:20.411Z,0.7
2018-12-13T11:46:20.447Z,0.7
2018-12-13T11:51:20.459Z,0.7
2018-12-13T11:56:20.455Z,0.7
2018-12-13T12:01:20.469Z,0.8
2018-12-13T12:06:20.463Z,0.9
2018-12-13T12:11:20.472Z,0.9
2018-12-13T12:16:20.461Z,0.9
2018-12-13T12:21:20.476Z,1
2018-12-13T12:26:20.474Z,0.9
2018-12-13T12:31:20.500Z,0.8
2018-12-13T12:36:20.500Z,0.8
2018-12-13T12:41:20.500Z,0.8
2018-12-13T12:46:21.228Z,0.8
2018-12-13T12:51:21.307Z,0.8
2018-12-13T12:56:21.303Z,0.7
2018-12-13T13:01:21.318Z,0.6
2018-12-13T13:06:21.314Z,0.5
2018-12-13T13:11:21.316Z,0.5
2018-12-13T13:16:21.320Z,0.5
2018-12-13T13:21:21.327Z,0.5
2018-12-13T13:26:21.342Z,0.4
2018-12-13T13:31:21.337Z,0.4
2018-12-13T13:36:21.335Z,0.4
2018-12-13T13:41:21.344Z,0.4
2018-12-13T13:46:21.327Z,0.3
2018-12-13T13:51:21.366Z,0.2
2018-12-13T13:56:21.333Z,0.2
2018-12-13T14:01:21.339Z,0.1
2018-12-13T14:06:21.323Z,0.1
2018-12-13T14:11:21.493Z,0
2018-12-13T14:16:21.341Z,0
2018-12-13T14:21:21.372Z,0
2018-12-13T14:26:21.365Z,0
2018-12-13T14:31:21.361Z,-0.1
2018-12-13T14:36:21.369Z,-0.1
2018-12-13T14:41:21.351Z,-0.2
2018-12-13T14:46:21.365Z,-0.3
2018-12-13T14:51:21.375Z,-0.3
2018-12-13T14:56:21.377Z,-0.3
2018-12-13T15:01:21.384Z,-0.4
2018-12-13T15:06:21.357Z,-0.4
2018-12-13T15:11:21.368Z,-0.5
2018-12-13T15:16:21.431Z,-0.5
2018-12-13T15:21:21.401Z,-0.5
2018-12-13T15:26:21.382Z,-0.5
2018-12-13T15:31:21.369Z,-0.5
2018-12-13T15:36:21.463Z,-0.5
2018-12-13T15:41:21.390Z,-0.5
2018-12-13T15:46:21.389Z,-0.5
2018-12-13T15:51:21.394Z,-0.5
2018-12-13T15:56:21.419Z,-0.5
2018-12-13T16:01:21.425Z,-0.6
2018-12-13T16:06:21.404Z,-0.6
2018-12-13T16:11:21.471Z,-0.6
2018-12-13T16:16:21.421Z,-0.6
2018-12-13T16:21:21.408Z,-0.7
2018-12-13T16:26:21.420Z,-0.7
2018-12-13T16:31:21.409Z,-0.7
2018-12-13T16:36:21.448Z,-0.7
2018-12-13T16:41:21.377Z,-0.7
2018-12-13T16:46:21.460Z,-0.7
2018-12-13T16:51:21.438Z,-0.7
2018-12-13T16:56:21.448Z,-0.7
2018-12-13T17:01:21.496Z,-0.8
2018-12-13T17:06:21.459Z,-0.7
2018-12-13T17:11:21.396Z,-0.8
2018-12-13T17:16:21.442Z,-0.8
2018-12-13T17:21:21.403Z,-0.8
2018-12-13T17:26:21.428Z,-0.8
2018-12-13T17:31:21.474Z,-0.8
2018-12-13T17:36:21.445Z,-0.8
2018-12-13T17:41:21.480Z,-0.8
2018-12-13T17:46:21.472Z,-0.8
2018-12-13T17:51:21.446Z,-0.8
2018-12-13T17:56:21.446Z,-0.8
2018-12-13T18:01:21.462Z,-0.8
2018-12-13T18:06:21.455Z,-0.8
2018-12-13T18:11:21.691Z,-0.9
2018-12-13T18:16:21.482Z,-0.9
2018-12-13T18:21:21.469Z,-0.9
2018-12-13T18:26:21.469Z,-0.9
2018-12-13T18:31:21.506Z,-1
2018-12-13T18:36:21.504Z,-1
2018-12-13T18:41:21.638Z,-1
2018-12-13T18:46:21.540Z,-1
2018-12-13T18:51:21.546Z,-1
2018-12-13T18:56:21.538Z,-1
2018-12-13T19:01:21.473Z,-1
2018-12-13T19:06:21.805Z,-1
2018-12-13T19:11:21.761Z,-1
2018-12-13T19:16:22.067Z,-1
2018-12-13T19:21:21.535Z,-1
2018-12-13T19:26:21.554Z,-0.9
2018-12-13T19:31:21.556Z,-0.9
2018-12-13T19:36:21.541Z,-0.9
2018-12-13T19:41:21.574Z,-0.9
2018-12-13T19:46:21.548Z,-0.9
2018-12-13T19:51:21.529Z,-0.9
2018-12-13T19:56:21.925Z,-0.9
2018-12-13T20:01:21.546Z,-0.9
2018-12-13T20:06:21.588Z,-0.9
2018-12-13T20:11:21.521Z,-0.8
2018-12-13T20:16:21.546Z,-0.9
2018-12-13T20:21:22.460Z,-0.8
2018-12-13T20:26:21.577Z,-0.8
2018-12-13T20:31:21.636Z,-0.8
2018-12-13T20:36:21.627Z,-0.8
2018-12-13T20:41:21.601Z,-0.8
2018-12-13T20:46:21.617Z,-0.8
2018-12-13T20:51:21.888Z,-0.8
2018-12-13T20:56:21.600Z,-0.8
2018-12-13T21:01:21.616Z,-0.8
2018-12-13T21:06:21.612Z,-0.8
2018-12-13T21:11:21.597Z,-0.8
2018-12-13T21:16:21.593Z,-0.7
2018-12-13T21:21:22.129Z,-0.8
2018-12-13T21:26:22.530Z,-0.8
2018-12-13T21:31:21.716Z,-0.8
2018-12-13T21:36:21.635Z,-0.8
2018-12-13T21:41:21.683Z,-0.8
2018-12-13T21:46:21.663Z,-0.8
2018-12-13T21:51:21.689Z,-0.8
2018-12-13T21:56:22.073Z,-0.8
2018-12-13T22:01:21.739Z,-0.8
2018-12-13T22:06:21.759Z,-0.8
2018-12-13T22:11:21.907Z,-0.8
2018-12-13T22:16:21.788Z,-0.9
2018-12-13T22:21:21.752Z,-0.9
2018-12-13T22:26:21.751Z,-0.9
2018-12-13T22:31:21.787Z,-0.9
2018-12-13T22:36:21.782Z,-1
2018-12-13T22:41:26.295Z,-1
2018-12-13T22:46:21.778Z,-1
2018-12-13T22:51:21.768Z,-1
2018-12-13T22:56:21.775Z,-1.1
2018-12-13T23:01:21.783Z,-1.1
2018-12-13T23:06:21.761Z,-1.1
2018-12-13T23:11:21.778Z,-1.2
2018-12-13T23:16:21.793Z,-1.2
2018-12-13T23:21:21.788Z,-1.2
2018-12-13T23:26:21.792Z,-1.2
2018-12-13T23:31:21.801Z,-1.3
2018-12-13T23:36:21.781Z,-1.3
2018-12-13T23:41:21.789Z,-1.3
2018-12-13T23:46:21.849Z,-1.3
2018-12-13T23:51:21.841Z,-1.2
2018-12-13T23:56:21.843Z,-1.2
